If you wish to contribute or participate in the discussions about articles you are invited to join SKYbrary as a registered user

 Actions

Sahand Airport

From SKYbrary Wiki

OITM
Airport
ICAO: OITM – IATA: ACP
Summary
Name Sahand Airport
Region Middle East
Territory Iran IR.gif
Location Maragheh Sahand, East Azerbaijan Province
Serving Bonab
Elevation 1,339.901 m
4,396 ft1,339.901 m
Coordinates 37° 20' 49.32" N, 46° 8' 39.87" E
Runways
Designator Length Width Surface ROPS
8/26 2930 m9,612.861 ft
30 m98.425 ft
ASP /


METAR
Observation OITM 111000Z 22010KT 9999 FEW032TCU BKN180 17/03 Q1016
Station Maragheh / Sahand
Date/Time 11 April 2019 10:00:00
Wind direction 220°
Wind speed 10 kts
Lowest cloud amount few clouds
Temperature 17°C
Dew point 3°C
Humidity 39%
QNH 1016 hPa
Weather condition n/a

Airport 7km3.78 nm
7,000 m
22,965.879 ft
east of the city of Bonab in Iran.

Climatology

Semi-arid climate (Köppen climate classification BSk).

Maps

Terrain

Loading map...

Airport Layout

Loading map...


Accidents & Serious Incidents at or in vicinity of OITM

None on SKYbrary